Terminal Aerodrome Forecast
Issued by NWS

Home | Current Version | Previous Version | Text Only | Print | Product List | Glossary On
Versions: 1 2 3 4 5 6 7 8 9 10 11 12 13 14 15 16
553
FTUS44 KLIX 260617 AAA
TAFMCB
TAF AMD
KMCB 260617Z 2606/2706 08004KT P6SM SKC
     FM261200 VRB03KT P6SM SCT015
     FM261300 08004KT P6SM SCT020
     FM261600 13005KT P6SM VCSH SCT025 BKN090
      TEMPO 2618/2622 VRB15G25KT 1SM TSRA BKN025CB BKN090
     FM262200 24009KT P6SM BKN040=

USA.gov is the U.S. government's official web portal to all federal, state and local government web resources and services.